Time;durP1;ratioP1;P1;durP2;ratioP2;P2;SDS_P1;SDS_P2;PMS_P1;PMS_P2;Temp;Humidity;BMP_temperature;BMP_pressure;BME280_temperature;BME280_humidity;BME280_pressure;Samples;Min_cycle;Max_cycle;Signal;HPM_P1;HPM_P2
2022/08/18 00:01:00;;;;;;;;;;;18.10;99.90;;;;;;5049536;28;19984;-85
2022/08/18 00:03:27;;;;;;;;;;;18.10;99.90;;;;;;5049657;28;19932;-85
2022/08/18 00:05:52;;;;;;;;;;;18.10;99.90;;;;;;5030235;28;19986;-85
2022/08/18 00:08:18;;;;;;;;;;;18.10;99.90;;;;;;5049241;28;19979;-85
2022/08/18 00:10:43;;;;;;;;;;;18.10;99.90;;;;;;5048889;28;19932;-85
2022/08/18 00:13:09;;;;;;;;;;;18.10;99.90;;;;;;5049232;28;19947;-85
2022/08/18 00:15:34;;;;;;;;;;;18.10;99.90;;;;;;5048812;28;19925;-85
2022/08/18 00:18:00;;;;;;;;;;;18.10;99.90;;;;;;5048967;28;19984;-85
2022/08/18 00:20:25;;;;;;;;;;;18.10;99.90;;;;;;5048438;28;20058;-85
2022/08/18 00:22:51;;;;;;;;;;;18.00;99.90;;;;;;5047286;28;20359;-85
2022/08/18 00:25:17;;;;;;;;;;;18.10;99.90;;;;;;5048810;28;19932;-85
2022/08/18 00:27:43;;;;;;;;;;;18.00;99.90;;;;;;5047776;28;20655;-85
2022/08/18 00:30:10;;;;;;;;;;;18.00;99.90;;;;;;5048793;28;19975;-85
2022/08/18 00:32:37;;;;;;;;;;;18.00;99.90;;;;;;5047274;28;20002;-85
2022/08/18 00:35:12;;;;;;;;;;;18.00;99.90;;;;;;5046299;28;20097;-86
2022/08/18 00:37:38;;;;;;;;;;;18.00;99.90;;;;;;5030495;28;19977;-85
2022/08/18 00:40:05;;;;;;;;;;;18.00;99.90;;;;;;5047416;28;19925;-85
2022/08/18 00:42:30;;;;;;;;;;;18.00;99.90;;;;;;5047114;28;19932;-86
2022/08/18 00:44:57;;;;;;;;;;;18.10;99.90;;;;;;5047832;28;19932;-85
2022/08/18 00:47:22;;;;;;;;;;;18.00;99.90;;;;;;5030570;28;19925;-85
2022/08/18 00:49:50;;;;;;;;;;;18.00;99.90;;;;;;5046973;28;19929;-86
2022/08/18 00:52:17;;;;;;;;;;;18.10;99.90;;;;;;5047882;28;20007;-86
2022/08/18 00:54:44;;;;;;;;;;;18.10;99.90;;;;;;5046491;28;19932;-86
2022/08/18 00:57:10;;;;;;;;;;;18.10;99.90;;;;;;5048382;28;19920;-87
2022/08/18 00:59:41;;;;;;;;;;;18.10;99.90;;;;;;5047746;28;20032;-86
2022/08/18 01:02:09;;;;;;;;;;;18.10;99.90;;;;;;5046915;28;19921;-86
2022/08/18 01:04:43;;;;;;;;;;;18.10;99.90;;;;;;5045914;28;19925;-85
2022/08/18 01:07:12;;;;;;;;;;;18.10;99.90;;;;;;5080894;22;19935;-79
2022/08/18 01:09:38;;;;;;;;;;;18.10;99.90;;;;;;5067997;28;20015;-79
2022/08/18 01:12:04;;;;;;;;;;;18.10;99.90;;;;;;5050409;28;20342;-79
2022/08/18 01:14:29;;;;;;;;;;;18.10;99.90;;;;;;5067389;28;19971;-79
2022/08/18 01:22:49;;;;;;;;;;;18.10;99.90;;;;;;4986100;28;19932;-79
2022/08/18 01:28:03;;;;;;;;;;;18.10;99.90;;;;;;5039519;28;19931;-79
2022/08/18 01:30:29;;;;;;;;;;;18.10;99.90;;;;;;5067629;28;19916;-79
2022/08/18 01:32:55;;;;;;;;;;;18.10;99.90;;;;;;5050552;28;19931;-79
2022/08/18 01:35:22;;;;;;;;;;;18.10;99.90;;;;;;5060106;28;19916;-79
2022/08/18 01:37:47;;;;;;;;;;;18.10;99.90;;;;;;5066701;28;19924;-79
2022/08/18 01:40:14;;;;;;;;;;;18.10;99.90;;;;;;5067785;28;20447;-79
2022/08/18 01:42:44;;;;;;;;;;;18.10;99.90;;;;;;5066895;28;19920;-79
2022/08/18 01:45:11;;;;;;;;;;;18.10;99.90;;;;;;5033236;28;19925;-79
2022/08/18 01:47:39;;;;;;;;;;;18.10;99.90;;;;;;5067092;28;19924;-79
2022/08/18 01:50:05;;;;;;;;;;;18.10;99.90;;;;;;5066525;28;19928;-79
2022/08/18 01:52:32;;;;;;;;;;;18.10;99.90;;;;;;5049706;28;20275;-79
2022/08/18 01:54:58;;;;;;;;;;;18.20;99.90;;;;;;5067769;28;19925;-79
2022/08/18 01:57:24;;;;;;;;;;;18.10;99.90;;;;;;5067820;28;20275;-79
2022/08/18 01:59:50;;;;;;;;;;;18.10;99.90;;;;;;5066968;28;19978;-79
2022/08/18 02:02:17;;;;;;;;;;;18.20;99.90;;;;;;5067508;28;20302;-79
2022/08/18 02:04:43;;;;;;;;;;;18.20;99.90;;;;;;5065473;28;20200;-79
2022/08/18 02:07:10;;;;;;;;;;;18.20;99.90;;;;;;5046533;28;19925;-79
2022/08/18 02:09:36;;;;;;;;;;;18.20;99.90;;;;;;5046413;28;20302;-80
2022/08/18 02:12:02;;;;;;;;;;;18.10;99.90;;;;;;5046652;28;19917;-79
2022/08/18 02:14:27;;;;;;;;;;;18.20;99.90;;;;;;5046817;28;19932;-79
2022/08/18 02:16:56;;;;;;;;;;;18.20;99.90;;;;;;5045365;28;20397;-79
2022/08/18 02:19:21;;;;;;;;;;;18.20;99.90;;;;;;5046354;28;20359;-79
2022/08/18 02:21:47;;;;;;;;;;;18.20;99.90;;;;;;5045710;28;19932;-79
2022/08/18 02:24:13;;;;;;;;;;;18.20;99.90;;;;;;5046506;28;19917;-79
2022/08/18 02:26:38;;;;;;;;;;;18.20;99.90;;;;;;5046123;28;19924;-80
2022/08/18 02:29:04;;;;;;;;;;;18.20;99.90;;;;;;5053387;28;20007;-79
2022/08/18 02:31:29;;;;;;;;;;;18.20;99.90;;;;;;5065712;28;19947;-79
2022/08/18 02:33:56;;;;;;;;;;;18.20;99.90;;;;;;5066846;28;19936;-79
2022/08/18 02:36:21;;;;;;;;;;;18.20;99.90;;;;;;5065108;28;19924;-80
2022/08/18 02:38:47;;;;;;;;;;;18.30;99.90;;;;;;5066390;28;20271;-79
2022/08/18 02:41:13;;;;;;;;;;;18.20;99.90;;;;;;5066447;28;20321;-79
2022/08/18 02:43:40;;;;;;;;;;;18.20;99.90;;;;;;5066020;28;19924;-80
2022/08/18 02:46:06;;;;;;;;;;;18.20;99.90;;;;;;5066146;28;20405;-79
2022/08/18 02:48:35;;;;;;;;;;;18.20;99.90;;;;;;5065842;28;19928;-80
2022/08/18 02:51:01;;;;;;;;;;;18.20;99.90;;;;;;5065475;28;19924;-78
2022/08/18 02:53:27;;;;;;;;;;;18.20;99.90;;;;;;5066744;28;19960;-79
2022/08/18 02:55:53;;;;;;;;;;;18.20;99.90;;;;;;5065469;28;19977;-79
2022/08/18 02:58:19;;;;;;;;;;;18.20;99.90;;;;;;5066289;28;20031;-79
2022/08/18 03:00:45;;;;;;;;;;;18.20;99.90;;;;;;5031185;28;19924;-78
2022/08/18 03:03:12;;;;;;;;;;;18.20;99.90;;;;;;5066454;28;19931;-79
2022/08/18 03:05:37;;;;;;;;;;;18.20;99.90;;;;;;5064570;28;20066;-79
2022/08/18 03:08:03;;;;;;;;;;;18.20;99.90;;;;;;5066693;28;20398;-79
2022/08/18 03:10:29;;;;;;;;;;;18.20;99.90;;;;;;5048403;28;19957;-79
2022/08/18 03:12:54;;;;;;;;;;;18.30;99.90;;;;;;5048860;28;19960;-79
2022/08/18 03:15:20;;;;;;;;;;;18.20;99.90;;;;;;5066446;28;19974;-80
2022/08/18 03:17:45;;;;;;;;;;;18.20;99.90;;;;;;5048576;28;19924;-79
2022/08/18 03:20:11;;;;;;;;;;;18.20;99.90;;;;;;5065549;28;19924;-79
2022/08/18 03:22:37;;;;;;;;;;;18.30;99.90;;;;;;5066408;28;19980;-79
2022/08/18 03:25:02;;;;;;;;;;;18.30;99.90;;;;;;5048287;28;19924;-79
2022/08/18 03:27:28;;;;;;;;;;;18.30;99.90;;;;;;5050852;28;20408;-79
2022/08/18 03:29:53;;;;;;;;;;;18.30;99.90;;;;;;5069919;28;19924;-80
2022/08/18 03:32:19;;;;;;;;;;;18.30;99.90;;;;;;5052204;28;19985;-79
2022/08/18 03:34:44;;;;;;;;;;;18.30;99.90;;;;;;5068690;28;19931;-79
2022/08/18 03:37:10;;;;;;;;;;;18.30;99.90;;;;;;5051758;28;19925;-79
2022/08/18 03:39:35;;;;;;;;;;;18.30;99.90;;;;;;5069574;28;19959;-80
2022/08/18 03:42:01;;;;;;;;;;;18.20;99.90;;;;;;5069952;28;19958;-80
2022/08/18 03:44:29;;;;;;;;;;;18.30;99.90;;;;;;5070085;28;19924;-79
2022/08/18 03:46:54;;;;;;;;;;;18.20;99.90;;;;;;5052291;28;19924;-79
2022/08/18 03:49:20;;;;;;;;;;;18.30;99.90;;;;;;5052041;28;19958;-79
2022/08/18 03:51:46;;;;;;;;;;;18.30;99.90;;;;;;5068468;28;19922;-79
2022/08/18 03:54:14;;;;;;;;;;;18.30;99.90;;;;;;5051853;28;20390;-79
2022/08/18 03:56:40;;;;;;;;;;;18.30;99.90;;;;;;5069173;28;19952;-79
2022/08/18 03:59:08;;;;;;;;;;;18.30;99.90;;;;;;5069359;28;20365;-79
2022/08/18 04:01:38;;;;;;;;;;;18.20;99.90;;;;;;5069457;28;19929;-79
2022/08/18 04:04:04;;;;;;;;;;;18.20;99.90;;;;;;5051948;28;19927;-80
2022/08/18 04:06:34;;;;;;;;;;;18.30;99.90;;;;;;5067724;28;19931;-80
2022/08/18 04:09:01;;;;;;;;;;;18.30;99.90;;;;;;5069237;28;19967;-80
2022/08/18 04:11:27;;;;;;;;;;;18.30;99.90;;;;;;5069749;28;19925;-80
2022/08/18 04:13:53;;;;;;;;;;;18.30;99.90;;;;;;5068847;28;20011;-79
2022/08/18 04:16:19;;;;;;;;;;;18.20;99.90;;;;;;5068915;28;20406;-80
2022/08/18 04:18:44;;;;;;;;;;;18.30;99.90;;;;;;5050925;28;19931;-80
2022/08/18 04:21:12;;;;;;;;;;;18.20;99.90;;;;;;5067922;28;19978;-79
2022/08/18 04:23:38;;;;;;;;;;;18.20;99.90;;;;;;5069012;28;19931;-80
2022/08/18 04:26:04;;;;;;;;;;;18.20;99.90;;;;;;5051211;28;19924;-79
2022/08/18 04:28:30;;;;;;;;;;;18.20;99.90;;;;;;5068668;28;20343;-80
2022/08/18 04:30:58;;;;;;;;;;;18.30;99.90;;;;;;5069457;28;19924;-80
2022/08/18 04:33:27;;;;;;;;;;;18.20;99.90;;;;;;5069281;28;19936;-80
2022/08/18 04:35:53;;;;;;;;;;;18.20;99.90;;;;;;5067182;28;19924;-79
2022/08/18 04:38:18;;;;;;;;;;;18.20;99.90;;;;;;5068102;28;20175;-79
2022/08/18 04:40:44;;;;;;;;;;;18.20;99.90;;;;;;5068337;28;20393;-79
2022/08/18 04:43:13;;;;;;;;;;;18.30;99.90;;;;;;5069060;28;19925;-79
2022/08/18 04:45:44;;;;;;;;;;;18.20;99.90;;;;;;5068258;28;19924;-79
2022/08/18 04:48:10;;;;;;;;;;;18.20;99.90;;;;;;5068925;28;19925;-79
2022/08/18 04:50:36;;;;;;;;;;;18.30;99.90;;;;;;5067472;28;19917;-79
2022/08/18 04:55:47;;;;;;;;;;;18.20;99.90;;;;;;5068151;28;19927;-79
2022/08/18 04:58:15;;;;;;;;;;;18.20;99.90;;;;;;5068712;28;20086;-79
2022/08/18 05:00:42;;;;;;;;;;;18.20;99.90;;;;;;5068075;28;19922;-79
2022/08/18 05:03:07;;;;;;;;;;;18.20;99.90;;;;;;5068069;28;19932;-79
2022/08/18 05:05:33;;;;;;;;;;;18.20;99.90;;;;;;5066263;28;19928;-79
2022/08/18 05:07:58;;;;;;;;;;;18.30;99.90;;;;;;5049731;28;19932;-78
2022/08/18 05:10:24;;;;;;;;;;;18.30;99.90;;;;;;5068842;28;19952;-79
2022/08/18 05:12:49;;;;;;;;;;;18.20;99.90;;;;;;5067985;28;19971;-79
2022/08/18 05:15:17;;;;;;;;;;;18.20;99.90;;;;;;5068151;28;19924;-79
2022/08/18 05:17:43;;;;;;;;;;;18.30;99.90;;;;;;5067659;28;20397;-79
2022/08/18 05:20:09;;;;;;;;;;;18.30;99.90;;;;;;5067229;28;19954;-79
2022/08/18 05:22:39;;;;;;;;;;;18.30;99.90;;;;;;5067537;28;20008;-79
2022/08/18 05:25:06;;;;;;;;;;;18.30;99.90;;;;;;5049947;28;19978;-79
2022/08/18 05:27:32;;;;;;;;;;;18.30;99.90;;;;;;5067621;28;19967;-79
2022/08/18 05:29:57;;;;;;;;;;;18.30;99.90;;;;;;5068377;28;19932;-79
2022/08/18 05:32:23;;;;;;;;;;;18.30;99.90;;;;;;5067449;28;20354;-80
2022/08/18 05:34:49;;;;;;;;;;;18.30;99.90;;;;;;5045239;28;19929;-79
2022/08/18 05:37:22;;;;;;;;;;;18.30;99.90;;;;;;5063432;28;19928;-81
2022/08/18 05:39:47;;;;;;;;;;;18.30;99.90;;;;;;5067094;28;19925;-81
2022/08/18 05:42:16;;;;;;;;;;;18.30;99.90;;;;;;5049469;28;20500;-82
2022/08/18 05:44:44;;;;;;;;;;;18.30;99.90;;;;;;5067178;28;20026;-82
2022/08/18 05:47:39;;;;;;;;;;;18.30;99.90;;;;;;5067260;28;20321;-81
2022/08/18 05:50:06;;;;;;;;;;;18.40;99.90;;;;;;5044453;28;19931;-80
2022/08/18 05:52:31;;;;;;;;;;;18.40;99.90;;;;;;5067073;28;19925;-81
2022/08/18 05:58:15;;;;;;;;;;;18.40;99.90;;;;;;5067198;28;19964;-81
2022/08/18 06:00:42;;;;;;;;;;;18.40;99.90;;;;;;5067307;28;19967;-81
2022/08/18 06:03:13;;;;;;;;;;;18.30;99.90;;;;;;5049502;28;19970;-82
2022/08/18 06:06:00;;;;;;;;;;;18.40;99.90;;;;;;5066063;28;19932;-81
2022/08/18 06:08:28;;;;;;;;;;;18.40;99.90;;;;;;5066550;28;20336;-81
2022/08/18 06:10:53;;;;;;;;;;;18.30;99.90;;;;;;5049335;28;19916;-82
2022/08/18 06:13:19;;;;;;;;;;;18.30;99.90;;;;;;5066294;28;20465;-81
2022/08/18 06:15:51;;;;;;;;;;;18.30;99.90;;;;;;5066092;28;19920;-82
2022/08/18 06:18:35;;;;;;;;;;;18.30;99.90;;;;;;5045585;28;20383;-81
2022/08/18 06:21:25;;;;;;;;;;;18.30;99.90;;;;;;5048426;28;19963;-81
2022/08/18 06:23:50;;;;;;;;;;;18.30;99.90;;;;;;5065818;28;19970;-81
2022/08/18 06:26:19;;;;;;;;;;;18.30;99.90;;;;;;5066134;28;19924;-81
2022/08/18 06:28:54;;;;;;;;;;;18.40;99.90;;;;;;5060706;28;19925;-81
2022/08/18 06:31:39;;;;;;;;;;;18.40;99.90;;;;;;5053143;28;19924;-81
2022/08/18 06:34:23;;;;;;;;;;;18.40;99.90;;;;;;5038710;28;19924;-80
2022/08/18 06:36:48;;;;;;;;;;;18.40;99.90;;;;;;5066561;28;20153;-80
2022/08/18 06:39:25;;;;;;;;;;;18.40;99.90;;;;;;5066512;28;19920;-80
2022/08/18 06:42:00;;;;;;;;;;;18.50;99.90;;;;;;5047861;28;19924;-79
2022/08/18 06:44:33;;;;;;;;;;;18.50;99.90;;;;;;5048702;28;19920;-80
2022/08/18 06:47:11;;;;;;;;;;;18.50;99.90;;;;;;5049175;28;19924;-80
2022/08/18 06:49:40;;;;;;;;;;;18.50;99.90;;;;;;5065076;28;19924;-80
2022/08/18 06:52:25;;;;;;;;;;;18.60;99.90;;;;;;5066815;28;19924;-80
2022/08/18 06:54:53;;;;;;;;;;;18.50;99.90;;;;;;5048930;28;19925;-80
2022/08/18 06:57:25;;;;;;;;;;;18.60;99.90;;;;;;5066841;28;19928;-80
2022/08/18 06:59:55;;;;;;;;;;;18.60;99.90;;;;;;5048609;28;19925;-80
2022/08/18 07:02:29;;;;;;;;;;;18.60;99.90;;;;;;5033505;28;20406;-80
2022/08/18 07:05:01;;;;;;;;;;;18.60;99.90;;;;;;5052034;28;19931;-80
2022/08/18 07:07:41;;;;;;;;;;;18.60;99.90;;;;;;5052864;28;20057;-80
2022/08/18 07:10:06;;;;;;;;;;;18.60;99.90;;;;;;5070088;28;19931;-80
2022/08/18 07:12:32;;;;;;;;;;;18.60;99.90;;;;;;5069129;28;19924;-80
2022/08/18 07:15:02;;;;;;;;;;;18.60;99.90;;;;;;5052344;28;20302;-80
2022/08/18 07:17:29;;;;;;;;;;;18.60;99.90;;;;;;5069254;28;19924;-80
2022/08/18 07:19:56;;;;;;;;;;;18.70;99.90;;;;;;5069504;28;20305;-80
2022/08/18 07:22:22;;;;;;;;;;;18.70;99.90;;;;;;5069376;28;19924;-80
2022/08/18 07:24:53;;;;;;;;;;;18.70;99.90;;;;;;5069272;28;19936;-80
2022/08/18 07:27:20;;;;;;;;;;;18.70;99.90;;;;;;5069531;28;19939;-80
2022/08/18 07:30:05;;;;;;;;;;;18.70;99.90;;;;;;5068775;28;19925;-80
2022/08/18 07:32:34;;;;;;;;;;;18.70;99.90;;;;;;5050054;28;19929;-80
2022/08/18 07:35:02;;;;;;;;;;;18.70;99.90;;;;;;5062454;28;19974;-80
2022/08/18 07:37:38;;;;;;;;;;;18.70;99.90;;;;;;5070637;28;19976;-81
2022/08/18 07:40:18;;;;;;;;;;;18.70;99.90;;;;;;5068968;28;19928;-80
2022/08/18 07:42:44;;;;;;;;;;;18.70;99.90;;;;;;5069387;28;19924;-81
2022/08/18 07:45:18;;;;;;;;;;;18.70;99.90;;;;;;5069926;28;19928;-79
2022/08/18 07:47:47;;;;;;;;;;;18.70;99.90;;;;;;5069696;28;19931;-80
2022/08/18 07:50:12;;;;;;;;;;;18.80;99.90;;;;;;5051016;28;19924;-79
2022/08/18 07:52:47;;;;;;;;;;;18.70;99.90;;;;;;5069394;28;19916;-80
2022/08/18 07:55:18;;;;;;;;;;;18.80;99.90;;;;;;5069832;28;19931;-77
2022/08/18 07:57:47;;;;;;;;;;;18.80;99.90;;;;;;5050267;28;19917;-76
2022/08/18 08:00:16;;;;;;;;;;;18.90;99.90;;;;;;5052054;28;20385;-77
2022/08/18 08:02:52;;;;;;;;;;;19.00;99.90;;;;;;5051773;28;19959;-77
2022/08/18 08:05:33;;;;;;;;;;;19.00;99.90;;;;;;5068157;28;19935;-76
2022/08/18 08:08:05;;;;;;;;;;;19.00;99.90;;;;;;5050832;28;19924;-76
2022/08/18 08:10:30;;;;;;;;;;;19.10;99.90;;;;;;5065015;28;19925;-76
2022/08/18 08:13:02;;;;;;;;;;;19.10;99.90;;;;;;5052108;28;19924;-76
2022/08/18 08:15:27;;;;;;;;;;;19.20;99.90;;;;;;5035060;28;20038;-76
2022/08/18 08:18:16;;;;;;;;;;;19.30;99.90;;;;;;5050273;28;20390;-76
2022/08/18 08:20:46;;;;;;;;;;;19.30;99.90;;;;;;5038816;28;20019;-77
2022/08/18 08:23:23;;;;;;;;;;;19.30;99.90;;;;;;5069097;28;19974;-77
2022/08/18 08:25:57;;;;;;;;;;;19.30;99.90;;;;;;5068625;28;19962;-77
2022/08/18 08:28:35;;;;;;;;;;;19.30;99.90;;;;;;5069345;28;19947;-77
2022/08/18 08:31:07;;;;;;;;;;;19.20;99.90;;;;;;5069105;28;19974;-76
2022/08/18 08:33:43;;;;;;;;;;;19.20;99.90;;;;;;5069212;28;19935;-76
2022/08/18 08:36:12;;;;;;;;;;;19.20;99.90;;;;;;5048697;28;20215;-77
2022/08/18 08:38:46;;;;;;;;;;;19.20;99.90;;;;;;5037600;28;20477;-77
2022/08/18 08:41:14;;;;;;;;;;;19.20;99.90;;;;;;5057860;28;19929;-75
2022/08/18 08:43:42;;;;;;;;;;;19.20;99.90;;;;;;5061103;28;19959;-75
2022/08/18 08:46:11;;;;;;;;;;;19.30;99.90;;;;;;5065730;28;20011;-76
2022/08/18 08:48:45;;;;;;;;;;;19.30;99.90;;;;;;5047122;28;20382;-76
2022/08/18 08:51:26;;;;;;;;;;;19.30;99.90;;;;;;5068532;28;19973;-77
2022/08/18 08:53:55;;;;;;;;;;;19.30;99.90;;;;;;5067516;28;20059;-76
2022/08/18 08:56:22;;;;;;;;;;;19.40;99.90;;;;;;5062204;28;20027;-76
2022/08/18 08:58:53;;;;;;;;;;;19.40;99.90;;;;;;5054084;28;19936;-77
2022/08/18 09:01:41;;;;;;;;;;;19.30;99.90;;;;;;5055767;28;19929;-76
2022/08/18 09:04:29;;;;;;;;;;;19.40;99.90;;;;;;5033158;28;19932;-77
2022/08/18 09:07:13;;;;;;;;;;;19.30;99.90;;;;;;5063314;28;20011;-76
2022/08/18 09:09:44;;;;;;;;;;;19.30;99.90;;;;;;5060890;28;20425;-78
2022/08/18 09:12:18;;;;;;;;;;;19.30;99.90;;;;;;5055876;28;20011;-77
2022/08/18 09:14:50;;;;;;;;;;;19.30;99.90;;;;;;5066392;28;20117;-78
2022/08/18 09:17:23;;;;;;;;;;;19.30;99.90;;;;;;5067008;28;19924;-76
2022/08/18 09:19:55;;;;;;;;;;;19.40;99.90;;;;;;5065302;28;20019;-76
2022/08/18 09:22:24;;;;;;;;;;;19.50;99.90;;;;;;5066047;28;19925;-76
2022/08/18 09:24:51;;;;;;;;;;;19.50;99.90;;;;;;5065957;28;19968;-76
2022/08/18 09:27:22;;;;;;;;;;;19.50;99.90;;;;;;5066616;28;19924;-76
2022/08/18 09:29:52;;;;;;;;;;;19.50;99.90;;;;;;5048995;28;20885;-76
2022/08/18 09:32:18;;;;;;;;;;;19.60;99.90;;;;;;5067353;28;20734;-75
2022/08/18 09:34:53;;;;;;;;;;;19.60;99.90;;;;;;5066154;28;19975;-75
2022/08/18 09:37:21;;;;;;;;;;;19.60;99.90;;;;;;5066107;28;19924;-75
2022/08/18 09:42:46;;;;;;;;;;;19.70;99.90;;;;;;5066785;28;20007;-75
2022/08/18 09:45:30;;;;;;;;;;;19.70;99.90;;;;;;5067034;28;19978;-76
2022/08/18 09:47:56;;;;;;;;;;;19.70;99.90;;;;;;5066078;28;20438;-76
2022/08/18 09:50:26;;;;;;;;;;;19.80;99.90;;;;;;5065906;28;20050;-75
2022/08/18 09:52:52;;;;;;;;;;;19.80;99.90;;;;;;5066846;28;20402;-75
2022/08/18 09:55:17;;;;;;;;;;;19.80;99.90;;;;;;5066776;28;19920;-75
2022/08/18 09:57:44;;;;;;;;;;;19.80;99.90;;;;;;5066877;28;19925;-76
2022/08/18 10:00:13;;;;;;;;;;;19.80;99.90;;;;;;5065352;28;19928;-77
2022/08/18 10:02:41;;;;;;;;;;;19.80;99.90;;;;;;5066714;28;20361;-76
2022/08/18 10:05:16;;;;;;;;;;;19.80;99.90;;;;;;5065735;28;19924;-76
2022/08/18 10:07:42;;;;;;;;;;;19.90;99.90;;;;;;5026611;28;19933;-76
2022/08/18 10:10:10;;;;;;;;;;;19.90;99.90;;;;;;5026617;28;20402;-76
2022/08/18 10:12:55;;;;;;;;;;;20.00;99.90;;;;;;5026764;28;19925;-76
2022/08/18 10:15:30;;;;;;;;;;;20.00;99.90;;;;;;5026621;28;20395;-76
2022/08/18 10:18:08;;;;;;;;;;;20.10;99.90;;;;;;5009263;28;19925;-76
2022/08/18 10:20:52;;;;;;;;;;;20.10;99.90;;;;;;5025636;28;19925;-76
2022/08/18 10:23:38;;;;;;;;;;;20.10;99.90;;;;;;5026676;28;19932;-76
2022/08/18 10:26:03;;;;;;;;;;;20.10;99.90;;;;;;5020683;28;19925;-76
2022/08/18 10:28:58;;;;;;;;;;;20.10;99.90;;;;;;5024658;28;19936;-76
2022/08/18 10:31:25;;;;;;;;;;;20.20;99.90;;;;;;5025663;28;19940;-76
2022/08/18 10:33:56;;;;;;;;;;;20.20;99.90;;;;;;5024996;28;19921;-76
2022/08/18 10:36:41;;;;;;;;;;;20.20;99.90;;;;;;5025327;28;20419;-77
2022/08/18 10:39:10;;;;;;;;;;;20.10;99.90;;;;;;5029736;28;19925;-76
2022/08/18 10:41:37;;;;;;;;;;;20.20;99.90;;;;;;5030512;28;20402;-76
2022/08/18 10:44:04;;;;;;;;;;;20.20;99.90;;;;;;5030769;28;19921;-76
2022/08/18 10:46:35;;;;;;;;;;;20.30;99.90;;;;;;5030138;28;19931;-76
2022/08/18 10:49:14;;;;;;;;;;;20.20;99.90;;;;;;5029951;28;19925;-76
2022/08/18 10:51:46;;;;;;;;;;;20.30;99.90;;;;;;5030065;28;19932;-76
2022/08/18 10:54:17;;;;;;;;;;;20.40;99.90;;;;;;5029107;28;19929;-76
2022/08/18 10:56:46;;;;;;;;;;;20.40;99.90;;;;;;5028705;28;19973;-76
2022/08/18 10:59:17;;;;;;;;;;;20.40;99.90;;;;;;5030566;28;20287;-77
2022/08/18 11:02:19;;;;;;;;;;;20.40;99.90;;;;;;5029897;28;19925;-76
2022/08/18 11:04:46;;;;;;;;;;;20.50;99.90;;;;;;5026319;28;20443;-77
2022/08/18 11:07:18;;;;;;;;;;;20.50;99.90;;;;;;5061112;28;19924;-76
2022/08/18 11:09:45;;;;;;;;;;;20.50;99.90;;;;;;5069423;28;19931;-77
2022/08/18 11:12:12;;;;;;;;;;;20.50;99.90;;;;;;5068927;28;20295;-76
2022/08/18 11:14:45;;;;;;;;;;;20.50;99.90;;;;;;5069582;28;19924;-76
2022/08/18 11:17:32;;;;;;;;;;;20.50;99.90;;;;;;5070267;28;19931;-76
2022/08/18 11:19:59;;;;;;;;;;;20.50;99.90;;;;;;5068374;28;19935;-76
2022/08/18 11:22:25;;;;;;;;;;;20.60;99.90;;;;;;5069053;28;19928;-76
2022/08/18 11:24:51;;;;;;;;;;;20.50;99.90;;;;;;5068226;28;20317;-76
2022/08/18 11:27:18;;;;;;;;;;;20.50;99.90;;;;;;5069721;28;19929;-76
2022/08/18 11:29:45;;;;;;;;;;;20.50;99.90;;;;;;5069723;28;20029;-76
2022/08/18 11:32:19;;;;;;;;;;;20.50;99.90;;;;;;5068526;28;19929;-76
2022/08/18 11:34:58;;;;;;;;;;;20.50;99.90;;;;;;5057806;28;20338;-76
2022/08/18 11:37:27;;;;;;;;;;;20.60;99.90;;;;;;5048273;28;20001;-76
2022/08/18 11:39:54;;;;;;;;;;;20.60;99.90;;;;;;5057209;28;19954;-76
2022/08/18 11:42:26;;;;;;;;;;;20.60;99.90;;;;;;5067240;28;19931;-76
2022/08/18 11:45:01;;;;;;;;;;;20.60;99.90;;;;;;5069863;28;19925;-76
2022/08/18 11:47:27;;;;;;;;;;;20.50;99.90;;;;;;5069040;28;19928;-76
2022/08/18 11:49:55;;;;;;;;;;;20.60;99.90;;;;;;5068685;28;19925;-76
2022/08/18 11:52:30;;;;;;;;;;;20.60;99.90;;;;;;5038149;28;20401;-76
2022/08/18 11:55:00;;;;;;;;;;;20.60;99.90;;;;;;5069796;28;19947;-76
2022/08/18 11:57:37;;;;;;;;;;;20.60;99.90;;;;;;5051778;28;20018;-76
2022/08/18 12:00:22;;;;;;;;;;;20.70;99.90;;;;;;5069663;28;19925;-76
2022/08/18 12:02:47;;;;;;;;;;;20.70;99.90;;;;;;5069283;28;19925;-76
2022/08/18 12:05:13;;;;;;;;;;;20.80;99.90;;;;;;5067823;28;20302;-76
2022/08/18 12:07:41;;;;;;;;;;;20.80;99.90;;;;;;5068561;28;19979;-76
2022/08/18 12:10:11;;;;;;;;;;;20.80;99.90;;;;;;5069330;28;19924;-76
2022/08/18 12:12:44;;;;;;;;;;;20.90;99.90;;;;;;5069021;28;19925;-77
2022/08/18 12:15:12;;;;;;;;;;;20.90;99.90;;;;;;5034810;28;19925;-78
2022/08/18 12:17:39;;;;;;;;;;;21.00;99.90;;;;;;5067969;28;20448;-76
2022/08/18 12:20:08;;;;;;;;;;;21.10;99.90;;;;;;5059079;28;20014;-77
2022/08/18 12:22:34;;;;;;;;;;;21.10;99.90;;;;;;5055285;28;19971;-81
2022/08/18 12:25:00;;;;;;;;;;;21.20;99.90;;;;;;5046396;28;19933;-76
2022/08/18 12:27:27;;;;;;;;;;;21.20;99.90;;;;;;5053324;28;19931;-77
2022/08/18 12:29:54;;;;;;;;;;;21.30;99.90;;;;;;5063640;28;19977;-75
2022/08/18 12:32:23;;;;;;;;;;;21.30;99.90;;;;;;5068033;28;19967;-78
2022/08/18 12:34:49;;;;;;;;;;;21.30;99.90;;;;;;5068295;28;19998;-76
2022/08/18 12:37:16;;;;;;;;;;;21.30;99.90;;;;;;5068780;28;20378;-76
2022/08/18 12:39:41;;;;;;;;;;;21.30;99.90;;;;;;5069009;28;19928;-78
2022/08/18 12:42:07;;;;;;;;;;;21.30;99.90;;;;;;5067671;28;20275;-76
2022/08/18 12:44:33;;;;;;;;;;;21.30;99.90;;;;;;5068439;28;19972;-76
2022/08/18 12:47:00;;;;;;;;;;;21.20;99.90;;;;;;5068658;28;20535;-75
2022/08/18 12:49:25;;;;;;;;;;;21.20;99.90;;;;;;5065427;28;19924;-76
2022/08/18 12:51:53;;;;;;;;;;;21.10;99.90;;;;;;5067871;28;19931;-76
2022/08/18 12:54:19;;;;;;;;;;;21.10;99.90;;;;;;5066253;28;20019;-76
2022/08/18 12:56:45;;;;;;;;;;;21.10;99.90;;;;;;5067434;28;20007;-76
2022/08/18 12:59:11;;;;;;;;;;;21.10;99.90;;;;;;5068086;28;19925;-76
2022/08/18 13:01:37;;;;;;;;;;;21.20;99.90;;;;;;5066890;28;19951;-76
2022/08/18 13:04:03;;;;;;;;;;;21.20;99.90;;;;;;5067665;28;20019;-76
2022/08/18 13:06:31;;;;;;;;;;;21.20;99.90;;;;;;5067706;28;19931;-76
2022/08/18 13:08:57;;;;;;;;;;;21.20;99.90;;;;;;5050351;28;19931;-77
2022/08/18 13:11:23;;;;;;;;;;;21.20;99.90;;;;;;5050443;28;19921;-76
2022/08/18 13:13:49;;;;;;;;;;;21.20;99.90;;;;;;5068210;28;20449;-76
2022/08/18 13:16:15;;;;;;;;;;;21.20;99.90;;;;;;5068367;28;19950;-76
2022/08/18 13:18:41;;;;;;;;;;;21.20;99.90;;;;;;5066943;28;20393;-76
2022/08/18 13:21:11;;;;;;;;;;;21.20;99.90;;;;;;5067989;28;19925;-76
2022/08/18 13:23:36;;;;;;;;;;;21.20;99.90;;;;;;5049991;28;19921;-76
2022/08/18 13:26:03;;;;;;;;;;;21.20;99.90;;;;;;5067292;28;19928;-76
2022/08/18 13:28:30;;;;;;;;;;;21.20;99.90;;;;;;5067607;28;19931;-76
2022/08/18 13:30:55;;;;;;;;;;;21.30;99.90;;;;;;5066227;28;19924;-76
2022/08/18 13:33:21;;;;;;;;;;;21.20;99.90;;;;;;5066367;28;20631;-76
2022/08/18 13:35:47;;;;;;;;;;;21.30;99.90;;;;;;5066864;28;19924;-76
2022/08/18 13:38:13;;;;;;;;;;;21.20;99.90;;;;;;5067000;28;20455;-76
2022/08/18 13:40:39;;;;;;;;;;;21.20;99.90;;;;;;5066898;28;20019;-76
2022/08/18 13:43:07;;;;;;;;;;;21.20;99.90;;;;;;5066770;28;20043;-76
2022/08/18 13:45:32;;;;;;;;;;;21.20;99.90;;;;;;5063062;28;19924;-77
2022/08/18 13:48:00;;;;;;;;;;;21.20;99.90;;;;;;5065490;28;20395;-77
2022/08/18 13:50:25;;;;;;;;;;;21.20;99.90;;;;;;5066362;28;19960;-76
2022/08/18 13:52:51;;;;;;;;;;;21.30;99.90;;;;;;5045656;28;20366;-76
2022/08/18 13:55:17;;;;;;;;;;;21.20;99.90;;;;;;5050586;28;19931;-76
2022/08/18 13:57:52;;;;;;;;;;;21.20;99.90;;;;;;5066762;28;19976;-76
2022/08/18 14:00:19;;;;;;;;;;;21.20;99.90;;;;;;5067386;28;19978;-76
2022/08/18 14:02:54;;;;;;;;;;;21.20;99.90;;;;;;5048301;28;19924;-76
2022/08/18 14:05:20;;;;;;;;;;;21.20;99.90;;;;;;5066918;28;19981;-77
2022/08/18 14:07:45;;;;;;;;;;;21.20;99.90;;;;;;5067192;28;19978;-76
2022/08/18 14:10:12;;;;;;;;;;;21.20;99.90;;;;;;5049172;28;20336;-76
2022/08/18 14:12:38;;;;;;;;;;;21.20;99.90;;;;;;5048755;28;19932;-76
2022/08/18 14:15:05;;;;;;;;;;;21.20;99.90;;;;;;5067395;28;19924;-77
2022/08/18 14:17:31;;;;;;;;;;;21.20;99.90;;;;;;5066760;28;19927;-77
2022/08/18 14:28:20;;;;;;;;;;;21.20;99.90;;;;;;4961478;28;19998;-76
2022/08/18 14:30:45;;;;;;;;;;;21.30;99.90;;;;;;5066537;28;19923;-76
2022/08/18 14:33:13;;;;;;;;;;;21.30;99.90;;;;;;5065937;28;19970;-76
2022/08/18 14:35:39;;;;;;;;;;;21.30;99.90;;;;;;5065466;28;20126;-76
2022/08/18 14:38:07;;;;;;;;;;;21.20;99.90;;;;;;5052830;28;19978;-78
2022/08/18 14:40:33;;;;;;;;;;;21.20;99.90;;;;;;5046198;28;20405;-78
2022/08/18 14:42:58;;;;;;;;;;;21.30;99.90;;;;;;5045365;28;20423;-77
2022/08/18 14:45:24;;;;;;;;;;;21.30;99.90;;;;;;5047719;28;20036;-79
2022/08/18 14:47:52;;;;;;;;;;;21.30;99.90;;;;;;5045578;28;19968;-78
2022/08/18 14:50:18;;;;;;;;;;;21.30;99.90;;;;;;5047077;28;20322;-78
2022/08/18 14:52:43;;;;;;;;;;;21.30;99.90;;;;;;5056210;28;19932;-78